createdAt,value
2018-09-30T00:02:12.822Z,8.10
2018-09-30T00:04:40.231Z,8.00
2018-09-30T00:07:07.600Z,8.10
2018-09-30T00:09:34.998Z,8.00
2018-09-30T00:12:02.876Z,8.00
2018-09-30T00:14:30.280Z,8.00
2018-09-30T00:16:58.499Z,8.00
2018-09-30T00:19:25.830Z,7.90
2018-09-30T00:21:53.258Z,7.80
2018-09-30T00:24:26.270Z,7.80
2018-09-30T00:26:57.500Z,7.70
2018-09-30T00:29:25.848Z,7.80
2018-09-30T00:31:53.304Z,7.70
2018-09-30T00:34:28.813Z,7.60
2018-09-30T00:36:58.322Z,7.60
2018-09-30T00:39:26.461Z,7.60
2018-09-30T00:41:54.095Z,7.60
2018-09-30T00:44:22.146Z,7.40
2018-09-30T00:46:49.932Z,7.50
2018-09-30T00:49:17.421Z,7.60
2018-09-30T00:51:44.933Z,7.50
2018-09-30T00:54:13.133Z,7.30
2018-09-30T00:56:40.593Z,7.20
2018-09-30T00:59:08.285Z,7.20
2018-09-30T01:01:35.694Z,7.20
2018-09-30T01:04:03.363Z,7.00
2018-09-30T01:06:30.779Z,7.10
2018-09-30T01:08:58.134Z,7.10
2018-09-30T01:11:25.624Z,7.10
2018-09-30T01:13:53.061Z,7.10
2018-09-30T01:16:20.551Z,7.00
2018-09-30T01:18:47.946Z,6.90
2018-09-30T01:21:15.307Z,6.80
2018-09-30T01:23:42.809Z,6.70
2018-09-30T01:26:10.242Z,6.70
2018-09-30T01:28:37.636Z,6.70
2018-09-30T01:31:05.241Z,6.70
2018-09-30T01:33:32.695Z,6.50
2018-09-30T01:36:00.099Z,6.40
2018-09-30T01:38:27.504Z,6.30
2018-09-30T01:40:54.931Z,6.10
2018-09-30T01:43:22.328Z,6.00
2018-09-30T01:45:49.966Z,5.90
2018-09-30T01:48:17.334Z,5.90
2018-09-30T01:50:44.701Z,5.90
2018-09-30T01:53:12.123Z,5.90
2018-09-30T01:55:39.486Z,6.00
2018-09-30T01:58:06.945Z,6.00
2018-09-30T02:00:34.398Z,6.00
2018-09-30T02:03:01.879Z,6.00
2018-09-30T02:05:29.262Z,5.90
2018-09-30T02:07:56.770Z,5.90
2018-09-30T02:10:24.264Z,5.70
2018-09-30T02:12:51.685Z,5.70
2018-09-30T02:15:19.118Z,5.60
2018-09-30T02:17:46.523Z,5.60
2018-09-30T02:20:14.061Z,5.50
2018-09-30T02:22:41.474Z,5.50
2018-09-30T02:25:08.988Z,5.50
2018-09-30T02:27:36.367Z,5.50
2018-09-30T02:30:04.139Z,5.60
2018-09-30T02:32:31.530Z,5.70
2018-09-30T02:34:58.878Z,5.80
2018-09-30T02:37:26.312Z,5.80
2018-09-30T02:39:53.699Z,5.90
2018-09-30T02:42:21.103Z,6.00
2018-09-30T02:44:48.566Z,6.10
2018-09-30T02:47:15.958Z,6.10
2018-09-30T02:49:43.709Z,5.90
2018-09-30T02:52:11.455Z,5.90
2018-09-30T02:54:39.229Z,5.70
2018-09-30T02:57:06.921Z,5.60
2018-09-30T02:59:34.801Z,5.30
2018-09-30T03:02:02.478Z,5.30
2018-09-30T03:04:30.170Z,5.20
2018-09-30T03:07:03.436Z,5.20
2018-09-30T03:09:31.872Z,5.10
2018-09-30T03:11:59.572Z,5.10
2018-09-30T03:14:27.073Z,5.10
2018-09-30T03:16:54.470Z,5.30
2018-09-30T03:19:23.397Z,5.20
2018-09-30T03:21:51.182Z,5.20
2018-09-30T03:24:19.587Z,5.30
2018-09-30T03:26:47.306Z,5.40
2018-09-30T03:29:14.699Z,5.50
2018-09-30T03:31:42.079Z,5.50
2018-09-30T03:34:09.475Z,5.40
2018-09-30T03:36:36.887Z,5.20
2018-09-30T03:39:06.061Z,5.20
2018-09-30T03:41:33.517Z,5.20
2018-09-30T03:44:00.973Z,5.20
2018-09-30T03:46:28.302Z,5.20
2018-09-30T03:48:55.805Z,5.10
2018-09-30T03:51:23.168Z,5.10
2018-09-30T03:53:50.680Z,5.20
2018-09-30T03:56:18.096Z,5.30
2018-09-30T03:58:45.731Z,5.20
2018-09-30T04:01:13.588Z,5.20
2018-09-30T04:03:41.373Z,5.40
2018-09-30T04:06:09.089Z,5.30
2018-09-30T04:08:36.986Z,5.30
2018-09-30T04:11:04.676Z,5.30
2018-09-30T04:13:32.366Z,5.30
2018-09-30T04:15:59.854Z,5.20
2018-09-30T04:18:27.236Z,5.20
2018-09-30T04:20:54.654Z,5.00
2018-09-30T04:23:22.083Z,5.00
2018-09-30T04:25:49.526Z,4.90
2018-09-30T04:28:16.982Z,4.80
2018-09-30T04:30:44.388Z,4.80
2018-09-30T04:33:11.794Z,4.70
2018-09-30T04:35:39.228Z,4.60
2018-09-30T04:38:06.696Z,4.70
2018-09-30T04:40:34.582Z,4.60
2018-09-30T04:43:02.277Z,4.70
2018-09-30T04:45:29.762Z,4.70
2018-09-30T04:47:57.162Z,4.80
2018-09-30T04:50:24.530Z,4.80
2018-09-30T04:52:51.908Z,4.90
2018-09-30T04:55:19.302Z,4.90
2018-09-30T04:57:46.752Z,5.00
2018-09-30T05:00:14.146Z,4.90
2018-09-30T05:02:41.685Z,4.90
2018-09-30T05:05:09.098Z,4.80
2018-09-30T05:07:36.527Z,4.80
2018-09-30T05:10:04.094Z,4.80
2018-09-30T05:12:31.753Z,4.80
2018-09-30T05:15:00.678Z,4.60
2018-09-30T05:17:28.195Z,4.60
2018-09-30T05:19:56.338Z,4.60
2018-09-30T05:22:24.020Z,4.60
2018-09-30T05:24:51.537Z,4.50
2018-09-30T05:27:19.060Z,4.60
2018-09-30T05:29:46.398Z,4.50
2018-09-30T05:32:13.879Z,4.50
2018-09-30T05:34:41.276Z,4.50
2018-09-30T05:37:08.770Z,4.60
2018-09-30T05:39:36.218Z,4.90
2018-09-30T05:42:03.629Z,4.70
2018-09-30T05:44:30.947Z,4.80
2018-09-30T05:46:58.276Z,4.80
2018-09-30T05:49:25.840Z,4.90
2018-09-30T05:51:53.263Z,5.20
2018-09-30T05:54:20.919Z,5.00
2018-09-30T05:56:48.435Z,5.00
2018-09-30T05:59:15.902Z,5.00
2018-09-30T06:01:43.365Z,4.90
2018-09-30T06:04:10.954Z,5.00
2018-09-30T06:06:38.584Z,5.20
2018-09-30T06:09:10.208Z,5.20
2018-09-30T06:11:37.579Z,5.30
2018-09-30T06:14:05.245Z,5.30
2018-09-30T06:16:32.598Z,5.30
2018-09-30T06:19:00.317Z,5.50
2018-09-30T06:21:27.845Z,5.50
2018-09-30T06:23:55.376Z,5.50
2018-09-30T06:26:22.871Z,5.70
2018-09-30T06:28:50.352Z,5.70
2018-09-30T06:31:17.835Z,5.70
2018-09-30T06:33:45.267Z,5.80
2018-09-30T06:36:12.614Z,6.00
2018-09-30T06:38:39.970Z,6.00
2018-09-30T06:41:07.639Z,6.10
2018-09-30T06:43:35.052Z,6.10
2018-09-30T06:46:02.616Z,6.20
2018-09-30T06:48:30.130Z,6.50
2018-09-30T06:50:57.703Z,6.70
2018-09-30T06:53:25.132Z,6.70
2018-09-30T06:55:52.551Z,6.90
2018-09-30T06:58:19.890Z,7.10
2018-09-30T07:00:47.400Z,7.40
2018-09-30T07:03:14.820Z,7.60
2018-09-30T07:05:42.206Z,7.80
2018-09-30T07:08:09.659Z,8.00
2018-09-30T07:10:37.187Z,8.20
2018-09-30T07:13:04.566Z,8.50
2018-09-30T07:15:31.986Z,8.70
2018-09-30T07:17:59.437Z,8.90
2018-09-30T07:20:26.930Z,9.10
2018-09-30T07:22:54.286Z,9.20
2018-09-30T07:25:21.702Z,9.40
2018-09-30T07:27:49.132Z,9.50
2018-09-30T07:30:16.601Z,9.50
2018-09-30T07:32:44.198Z,9.70
2018-09-30T07:35:11.542Z,9.80
2018-09-30T07:37:38.962Z,9.90
2018-09-30T07:40:06.350Z,9.90
2018-09-30T07:42:33.758Z,10.10
2018-09-30T07:45:01.132Z,10.10
2018-09-30T07:47:28.560Z,10.00
2018-09-30T07:49:56.009Z,10.10
2018-09-30T07:52:23.421Z,10.10
2018-09-30T07:54:50.850Z,10.30
2018-09-30T07:57:18.314Z,10.20
2018-09-30T07:59:45.770Z,10.20
2018-09-30T08:02:13.161Z,10.40
2018-09-30T08:04:40.679Z,10.70
2018-09-30T08:07:08.376Z,10.80
2018-09-30T08:09:35.791Z,10.90
2018-09-30T08:12:03.178Z,11.20
2018-09-30T08:14:30.650Z,11.40
2018-09-30T08:16:58.113Z,11.50
2018-09-30T08:19:25.840Z,11.60
2018-09-30T08:21:53.260Z,11.70
2018-09-30T08:24:20.931Z,11.80
2018-09-30T08:26:48.258Z,11.90
2018-09-30T08:29:15.738Z,12.00
2018-09-30T08:31:43.217Z,12.10
2018-09-30T08:34:10.623Z,12.30
2018-09-30T08:36:38.090Z,12.50
2018-09-30T08:39:06.976Z,12.60
2018-09-30T08:41:34.373Z,12.60
2018-09-30T08:44:01.830Z,12.80
2018-09-30T08:46:29.228Z,12.90
2018-09-30T08:48:56.712Z,13.10
2018-09-30T08:51:24.185Z,13.00
2018-09-30T08:53:51.698Z,13.00
2018-09-30T08:56:19.091Z,13.20
2018-09-30T08:58:46.542Z,13.30
2018-09-30T09:01:13.978Z,13.40
2018-09-30T09:03:41.348Z,13.70
2018-09-30T09:06:08.834Z,13.70
2018-09-30T09:08:36.251Z,13.90
2018-09-30T09:11:03.786Z,14.00
2018-09-30T09:13:31.208Z,14.00
2018-09-30T09:15:58.640Z,14.30
2018-09-30T09:18:26.029Z,14.30
2018-09-30T09:20:53.524Z,14.20
2018-09-30T09:23:20.945Z,14.40
2018-09-30T09:25:48.369Z,14.40
2018-09-30T09:28:15.794Z,14.60
2018-09-30T09:30:43.196Z,14.70
2018-09-30T09:33:10.691Z,14.90
2018-09-30T09:35:37.988Z,15.20
2018-09-30T09:38:05.536Z,15.30
2018-09-30T09:40:32.985Z,15.20
2018-09-30T09:43:00.352Z,15.20
2018-09-30T09:45:27.829Z,15.70
2018-09-30T09:47:55.217Z,15.90
2018-09-30T09:50:22.625Z,15.90
2018-09-30T09:52:50.075Z,15.90
2018-09-30T09:55:17.455Z,16.00
2018-09-30T09:57:44.971Z,16.10
2018-09-30T10:00:17.055Z,16.00
2018-09-30T10:02:44.482Z,16.20
2018-09-30T10:05:11.959Z,16.60
2018-09-30T10:07:39.373Z,16.50
2018-09-30T10:10:08.031Z,17.20
2018-09-30T10:12:35.439Z,17.30
2018-09-30T10:15:02.847Z,17.20
2018-09-30T10:17:30.240Z,17.30
2018-09-30T10:19:57.708Z,17.30
2018-09-30T10:22:25.100Z,17.50
2018-09-30T10:24:52.454Z,17.50
2018-09-30T10:27:19.810Z,17.90
2018-09-30T10:29:47.233Z,18.00
2018-09-30T10:32:14.723Z,18.00
2018-09-30T10:34:42.063Z,17.80
2018-09-30T10:37:09.426Z,18.20
2018-09-30T10:39:36.764Z,18.00
2018-09-30T10:42:04.320Z,18.30
2018-09-30T10:44:31.771Z,17.80
2018-09-30T10:46:59.293Z,18.00
2018-09-30T10:49:26.786Z,18.20
2018-09-30T10:51:54.385Z,18.40
2018-09-30T10:54:21.910Z,18.60
2018-09-30T10:56:49.343Z,18.70
2018-09-30T10:59:16.974Z,18.90
2018-09-30T11:01:44.415Z,19.10
2018-09-30T11:04:12.941Z,18.90
2018-09-30T11:06:40.398Z,18.90
2018-09-30T11:09:07.930Z,19.50
2018-09-30T11:11:35.395Z,19.50
2018-09-30T11:14:03.422Z,19.20
2018-09-30T11:16:31.031Z,19.40
2018-09-30T11:18:58.371Z,19.50
2018-09-30T11:21:25.834Z,19.10
2018-09-30T11:23:53.225Z,19.60
2018-09-30T11:26:20.540Z,19.70
2018-09-30T11:28:48.029Z,19.80
2018-09-30T11:31:15.353Z,19.70
2018-09-30T11:33:44.612Z,19.50
2018-09-30T11:36:12.064Z,19.40
2018-09-30T11:38:39.537Z,19.10
2018-09-30T11:41:06.984Z,19.20
2018-09-30T11:43:34.351Z,19.70
2018-09-30T11:46:01.718Z,20.40
2018-09-30T11:48:29.184Z,20.70
2018-09-30T11:50:56.619Z,21.10
2018-09-30T11:53:24.104Z,20.90
2018-09-30T11:55:51.642Z,21.10
2018-09-30T11:58:18.956Z,20.30
2018-09-30T12:00:46.744Z,20.60
2018-09-30T12:03:14.253Z,20.80
2018-09-30T12:05:41.687Z,20.80
2018-09-30T12:08:09.147Z,21.10
2018-09-30T12:10:36.573Z,21.50
2018-09-30T12:13:03.956Z,21.70
2018-09-30T12:15:31.436Z,21.90
2018-09-30T12:17:58.995Z,22.00
2018-09-30T12:20:26.929Z,21.90
2018-09-30T12:22:54.323Z,22.10
2018-09-30T12:25:21.758Z,21.60
2018-09-30T12:27:49.976Z,21.30
2018-09-30T12:30:17.673Z,20.80
2018-09-30T12:32:45.467Z,20.40
2018-09-30T12:35:13.235Z,21.00
2018-09-30T12:37:40.661Z,21.30
2018-09-30T12:40:08.095Z,21.60
2018-09-30T12:42:36.466Z,21.80
2018-09-30T12:45:04.250Z,21.90
2018-09-30T12:47:31.709Z,21.80
2018-09-30T12:49:59.131Z,22.00
2018-09-30T12:52:26.515Z,21.70
2018-09-30T12:54:54.002Z,21.30
2018-09-30T12:57:21.502Z,20.50
2018-09-30T12:59:49.031Z,21.10
2018-09-30T13:02:16.682Z,21.70
2018-09-30T13:04:44.264Z,22.00
2018-09-30T13:07:18.554Z,22.00
2018-09-30T13:09:45.970Z,21.70
2018-09-30T13:12:13.973Z,21.80
2018-09-30T13:14:42.503Z,21.70
2018-09-30T13:17:10.012Z,21.90
2018-09-30T13:19:37.516Z,22.10
2018-09-30T13:22:05.115Z,22.20
2018-09-30T13:24:32.497Z,22.40
2018-09-30T13:27:00.096Z,22.50
2018-09-30T13:29:27.516Z,22.50
2018-09-30T13:31:54.903Z,22.00
2018-09-30T13:34:22.407Z,22.00
2018-09-30T13:36:49.929Z,22.30
2018-09-30T13:39:17.347Z,21.50
2018-09-30T13:41:44.819Z,20.90
2018-09-30T13:44:12.269Z,21.30
2018-09-30T13:46:39.713Z,21.60
2018-09-30T13:49:07.166Z,20.80
2018-09-30T13:51:34.603Z,20.90
2018-09-30T13:54:01.997Z,21.00
2018-09-30T13:56:29.495Z,21.70
2018-09-30T13:58:56.934Z,22.10
2018-09-30T14:01:24.370Z,22.20
2018-09-30T14:03:51.858Z,22.40
2018-09-30T14:06:19.337Z,22.60
2018-09-30T14:08:47.757Z,22.60
2018-09-30T14:11:15.453Z,22.10
2018-09-30T14:13:43.153Z,22.40
2018-09-30T14:16:10.673Z,22.40
2018-09-30T14:18:38.124Z,22.00
2018-09-30T14:21:05.515Z,22.00
2018-09-30T14:23:32.953Z,22.50
2018-09-30T14:26:00.446Z,23.30
2018-09-30T14:28:27.969Z,23.60
2018-09-30T14:30:55.430Z,23.70
2018-09-30T14:33:22.837Z,23.60
2018-09-30T14:35:50.344Z,23.70
2018-09-30T14:38:18.153Z,23.70
2018-09-30T14:40:45.696Z,24.00
2018-09-30T14:43:13.229Z,23.50
2018-09-30T14:45:40.921Z,23.20
2018-09-30T14:48:08.493Z,22.60
2018-09-30T14:50:35.815Z,22.00
2018-09-30T14:53:03.303Z,22.30
2018-09-30T14:55:30.799Z,21.80
2018-09-30T14:57:58.310Z,21.80
2018-09-30T15:00:25.782Z,21.00
2018-09-30T15:02:53.154Z,20.70
2018-09-30T15:05:20.489Z,21.90
2018-09-30T15:07:47.898Z,23.40
2018-09-30T15:10:15.239Z,24.60
2018-09-30T15:12:42.738Z,24.80
2018-09-30T15:15:10.185Z,23.80
2018-09-30T15:17:37.769Z,22.50
2018-09-30T15:20:05.334Z,21.60
2018-09-30T15:22:32.943Z,20.80
2018-09-30T15:25:00.558Z,20.30
2018-09-30T15:27:28.262Z,19.80
2018-09-30T15:29:55.730Z,19.70
2018-09-30T15:32:23.125Z,19.60
2018-09-30T15:34:50.664Z,19.60
2018-09-30T15:37:18.153Z,19.60
2018-09-30T15:39:45.634Z,19.50
2018-09-30T15:42:13.066Z,19.40
2018-09-30T15:44:41.467Z,19.30
2018-09-30T15:47:08.939Z,19.10
2018-09-30T15:49:36.797Z,19.10
2018-09-30T15:52:04.224Z,19.00
2018-09-30T15:54:32.666Z,19.00
2018-09-30T15:57:00.153Z,18.90
2018-09-30T15:59:27.529Z,18.80
2018-09-30T16:01:54.939Z,18.80
2018-09-30T16:04:22.402Z,18.80
2018-09-30T16:06:49.820Z,18.70
2018-09-30T16:09:17.331Z,18.70
2018-09-30T16:11:44.861Z,18.70
2018-09-30T16:14:12.358Z,18.60
2018-09-30T16:16:39.851Z,18.50
2018-09-30T16:19:07.389Z,18.40
2018-09-30T16:21:34.914Z,18.30
2018-09-30T16:24:02.395Z,18.20
2018-09-30T16:26:29.899Z,18.20
2018-09-30T16:28:57.211Z,18.00
2018-09-30T16:31:24.562Z,18.00
2018-09-30T16:33:52.008Z,17.90
2018-09-30T16:36:19.600Z,17.80
2018-09-30T16:38:47.015Z,17.70
2018-09-30T16:41:14.553Z,17.60
2018-09-30T16:43:41.836Z,17.40
2018-09-30T16:46:09.217Z,17.30
2018-09-30T16:48:36.910Z,17.20
2018-09-30T16:51:04.346Z,17.00
2018-09-30T16:53:31.834Z,16.90
2018-09-30T16:55:59.389Z,16.80
2018-09-30T16:58:26.893Z,16.70
2018-09-30T17:00:54.260Z,16.50
2018-09-30T17:03:25.016Z,16.50
2018-09-30T17:05:56.739Z,16.50
2018-09-30T17:08:25.277Z,16.50
2018-09-30T17:10:55.625Z,16.40
2018-09-30T17:13:29.513Z,16.20
2018-09-30T17:15:58.815Z,16.00
2018-09-30T17:18:45.098Z,15.90
2018-09-30T17:21:20.545Z,15.70
2018-09-30T17:23:49.559Z,15.60
2018-09-30T17:26:19.309Z,15.60
2018-09-30T17:28:46.787Z,15.50
2018-09-30T17:31:20.339Z,15.40
2018-09-30T17:33:51.289Z,15.40
2018-09-30T17:36:18.885Z,15.30
2018-09-30T17:38:46.701Z,15.20
2018-09-30T17:41:14.229Z,15.10
2018-09-30T17:43:41.692Z,15.10
2018-09-30T17:46:09.067Z,14.80
2018-09-30T17:48:36.727Z,14.60
2018-09-30T17:51:04.326Z,14.60
2018-09-30T17:53:31.820Z,14.50
2018-09-30T17:55:59.183Z,14.50
2018-09-30T17:58:26.639Z,14.50
2018-09-30T18:00:54.106Z,14.50
2018-09-30T18:03:21.505Z,14.40
2018-09-30T18:05:48.965Z,14.30
2018-09-30T18:08:16.436Z,14.20
2018-09-30T18:10:43.948Z,14.20
2018-09-30T18:13:11.410Z,14.10
2018-09-30T18:15:38.903Z,14.10
2018-09-30T18:18:20.390Z,14.10
2018-09-30T18:20:52.395Z,13.90
2018-09-30T18:23:20.109Z,13.80
2018-09-30T18:25:48.328Z,13.80
2018-09-30T18:28:18.827Z,13.80
2018-09-30T18:30:48.361Z,13.90
2018-09-30T18:33:19.617Z,13.80
2018-09-30T18:35:48.917Z,13.60
2018-09-30T18:38:18.651Z,13.40
2018-09-30T18:40:49.696Z,13.40
2018-09-30T18:43:18.368Z,13.40
2018-09-30T18:45:46.734Z,13.30
2018-09-30T18:48:15.734Z,13.30
2018-09-30T18:50:45.355Z,13.30
2018-09-30T18:53:14.799Z,13.20
2018-09-30T18:55:45.284Z,13.20
2018-09-30T18:58:15.950Z,13.10
2018-09-30T19:00:45.342Z,13.10
2018-09-30T19:03:16.733Z,13.30
2018-09-30T19:05:47.301Z,13.30
2018-09-30T19:08:16.226Z,13.30
2018-09-30T19:10:47.116Z,13.30
2018-09-30T19:13:15.702Z,13.20
2018-09-30T19:15:46.076Z,13.10
2018-09-30T19:18:16.686Z,13.10
2018-09-30T19:20:46.472Z,13.10
2018-09-30T19:23:17.421Z,12.90
2018-09-30T19:25:46.014Z,12.90
2018-09-30T19:28:16.392Z,12.80
2018-09-30T19:30:45.912Z,12.70
2018-09-30T19:33:24.330Z,12.70
2018-09-30T19:35:57.372Z,12.60
2018-09-30T19:38:26.263Z,12.50
2018-09-30T19:40:58.110Z,12.50
2018-09-30T19:43:26.246Z,12.50
2018-09-30T19:45:56.306Z,12.40
2018-09-30T19:48:27.586Z,12.30
2018-09-30T19:50:57.789Z,12.40
2018-09-30T19:53:26.722Z,12.40
2018-09-30T19:55:56.673Z,12.40
2018-09-30T19:58:27.589Z,12.30
2018-09-30T20:00:57.266Z,12.40
2018-09-30T20:03:28.389Z,12.40
2018-09-30T20:05:57.036Z,12.20
2018-09-30T20:08:27.481Z,12.20
2018-09-30T20:10:56.549Z,12.20
2018-09-30T20:13:26.922Z,12.10
2018-09-30T20:15:57.047Z,12.10
2018-09-30T20:18:26.056Z,12.10
2018-09-30T20:20:56.239Z,12.00
2018-09-30T20:23:25.653Z,12.00
2018-09-30T20:25:55.571Z,11.90
2018-09-30T20:28:32.830Z,11.80
2018-09-30T20:31:01.647Z,11.70
2018-09-30T20:33:30.526Z,11.70
2018-09-30T20:36:00.462Z,11.50
2018-09-30T20:38:30.201Z,11.50
2018-09-30T20:40:57.601Z,11.50
2018-09-30T20:43:25.163Z,11.50
2018-09-30T20:45:56.014Z,11.30
2018-09-30T20:48:25.264Z,11.40
2018-09-30T20:50:56.283Z,11.30
2018-09-30T20:53:25.697Z,11.30
2018-09-30T20:55:55.035Z,11.20
2018-09-30T20:58:25.604Z,11.20
2018-09-30T21:00:56.921Z,11.20
2018-09-30T21:03:26.097Z,11.10
2018-09-30T21:06:25.185Z,11.10
2018-09-30T21:08:55.076Z,11.00
2018-09-30T21:11:25.483Z,10.90
2018-09-30T21:13:53.115Z,10.80
2018-09-30T21:16:21.574Z,10.70
2018-09-30T21:18:51.694Z,10.70
2018-09-30T21:21:19.141Z,10.60
2018-09-30T21:23:46.597Z,10.70
2018-09-30T21:26:14.030Z,10.60
2018-09-30T21:28:41.463Z,10.60
2018-09-30T21:31:08.829Z,10.50
2018-09-30T21:33:36.160Z,10.40
2018-09-30T21:36:03.629Z,10.40
2018-09-30T21:38:31.108Z,10.50
2018-09-30T21:40:58.690Z,10.30
2018-09-30T21:43:26.127Z,10.20
2018-09-30T21:45:53.478Z,10.20
2018-09-30T21:48:21.398Z,10.10
2018-09-30T21:50:49.059Z,10.10
2018-09-30T21:53:17.230Z,9.90
2018-09-30T21:55:44.618Z,10.00
2018-09-30T21:58:12.122Z,9.80
2018-09-30T22:00:41.975Z,9.70
2018-09-30T22:03:11.673Z,9.60
2018-09-30T22:05:39.192Z,9.70
2018-09-30T22:08:08.042Z,9.80
2018-09-30T22:10:35.900Z,9.70
2018-09-30T22:13:03.458Z,9.80
2018-09-30T22:15:31.167Z,9.70
2018-09-30T22:17:58.599Z,9.60
2018-09-30T22:20:26.196Z,9.60
2018-09-30T22:22:53.646Z,9.50
2018-09-30T22:25:21.042Z,9.50
2018-09-30T22:27:48.750Z,9.60
2018-09-30T22:30:16.256Z,9.50
2018-09-30T22:32:43.786Z,9.30
2018-09-30T22:35:11.301Z,9.40
2018-09-30T22:37:38.802Z,9.30
2018-09-30T22:40:06.858Z,9.20
2018-09-30T22:42:34.342Z,9.20
2018-09-30T22:45:01.779Z,9.20
2018-09-30T22:47:29.165Z,9.20
2018-09-30T22:49:56.555Z,9.30
2018-09-30T22:52:23.980Z,9.30
2018-09-30T22:54:51.489Z,9.20
2018-09-30T22:57:18.901Z,9.00
2018-09-30T22:59:46.256Z,8.90
2018-09-30T23:02:13.685Z,8.90
2018-09-30T23:04:41.111Z,9.20
2018-09-30T23:07:08.643Z,9.30
2018-09-30T23:09:36.133Z,9.20
2018-09-30T23:12:03.506Z,9.20
2018-09-30T23:14:30.919Z,9.20
2018-09-30T23:16:58.389Z,9.00
2018-09-30T23:19:25.779Z,9.00
2018-09-30T23:21:53.176Z,9.10
2018-09-30T23:24:20.578Z,9.00
2018-09-30T23:26:48.099Z,8.90
2018-09-30T23:29:15.598Z,8.80
2018-09-30T23:31:42.975Z,8.80
2018-09-30T23:34:10.380Z,8.70
2018-09-30T23:36:37.984Z,8.60
2018-09-30T23:39:07.388Z,8.50
2018-09-30T23:41:35.062Z,8.40
2018-09-30T23:44:02.434Z,8.50
2018-09-30T23:46:29.850Z,8.50
2018-09-30T23:48:57.293Z,8.30
2018-09-30T23:51:24.826Z,8.30
2018-09-30T23:53:52.310Z,8.20
2018-09-30T23:56:19.726Z,8.20
2018-09-30T23:58:47.098Z,8.20
